AirNav  
 
 999 users online  

35MO Camp Clark Army Heliport
Nevada, Missouri, USA

GOING TO NEVADA?


FAA INFORMATION EFFECTIVE 25 MARCH 2021

Location

FAA Identifier: 35MO
Lat/Long: 37-49-00.1390N 094-18-00.8120W
37-49.002317N 094-18.013533W
37.8167053,-94.3002256
(estimated)
Elevation: 900 ft. / 274 m (estimated)
Variation: 05E (1985)
Time zone: UTC -5 (UTC -6 during Standard Time)
Zip code: 64772

Heliport Operations

Heliport use: Private use. Permission required prior to landing
Control tower: no
ARTCC: KANSAS CITY CENTER
FSS: COLUMBIA FLIGHT SERVICE STATION
Attendance: UNATNDD
Pattern altitude: 2300 ft. MSL
Wind indicator: yes
Segmented circle: no

Heliport Communications

WX AWOS-3 at NVD (2.2 nm N): 119.175 (417-448-1635)

Nearby radio navigation aids

VOR radial/distance  VOR name  Freq  Var
BUMr155/28.7BUTLER VORTAC115.9007E

Heliport Services

Runway Information

Helipad H2

Dimensions: 100 x 50 ft. / 30 x 15 m
Surface: concrete
Latitude: 37-49.286000N
Longitude: 094-18.338000W
Traffic pattern: leftleft

Helipad H1

Dimensions: 400 x 400 ft. / 122 x 122 m
Surface: turf
Latitude: 37-49.002333N
Longitude: 094-18.013500W
Elevation: 900.0 ft.
Traffic pattern: leftleft

Heliport Ownership and Management from official FAA records

Ownership: U.S. Army
Owner: U. S. ARMY
CAMP CLARK/FT CROWDER COMPLEX
NEVADA, MO 64772-0265
Phone 417-667-8601
TEMPORARY DURING NG TRNG.
Manager: LTC ROBERT W. BENNETT
P O BOX 265
CAMP CLARK, NV, MO 64772-0265
Phone 417-667-2357

Additional Remarks

HELIPAD FOR MILITARY USE ONLY.
FOR CD CTC KANSAS CITY ARTCC AT 913-254-8508.

Instrument Procedures

There are no published instrument procedures at 35MO.

Some nearby airports with instrument procedures:

KNVD - Nevada Municipal Airport (2 nm N)
KLLU - Lamar Municipal Airport (20 nm S)
KFSK - Fort Scott Municipal Airport (22 nm W)
MO3 - Stockton Municipal Airport (25 nm E)
KBUM - Butler Memorial Airport (28 nm N)
 
Loc | Ops | Rwys | IFR | FBO | Links
Com | Nav | Svcs | Stats | Notes
Area around 35MO (Camp Clark Army Heliport)
 
Road maps at: MapQuest Bing Google
 
Aerial photo
No photo
 
Sectional chart

 
Airport distance calculator
Flying to Camp Clark Army Heliport? Find the distance to fly.

From to 35MO

Sunrise and sunset
Times for 11-Apr-2021
 Local
(UTC-5)
 Zulu
(UTC)
Morning civil twilight06:2211:22
Sunrise06:4911:49
Sunset19:4800:48
Evening civil twilight20:1501:15

Current date and time
Zulu (UTC)  12-Apr-2021 00:16:34
Local (UTC-5)  11-Apr-2021 19:16:34
 
METAR
KPTS 
30nm SW 
112355Z AUTO 22009KT 10SM CLR 23/10 A2959 RMK AO2 T02300100 10243 20202
KJLN 
41nm S 
112353Z 22010KT 10SM CLR 24/06 A2962 RMK AO2 SLP025 T02390056 10250 20222 53000 $
KGLY 
44nm NE 
112355Z AUTO 21004KT 10SM CLR 22/10 A2956 RMK AO2
KLRY 
48nm N 
112355Z AUTO 28010G16KT CLR 24/03 A2959 RMK AO2
TAF
KJLN 
41nm S 
111733Z 1118/1218 23014G21KT P6SM SKC FM120100 28005KT P6SM SKC FM120500 35006KT P6SM FEW250
NOTAMs
Click for the latest NOTAMs
NOTAMs are issued by the DoD/FAA and will open in a separate window not controlled by AirNav.

 

 
 

Would you like to see your business listed on this page?

 If your business provides an interesting product or service to pilots, flight crews, aircraft, or users of the Camp Clark Army Heliport, you should consider listing it here.  To start the listing process, click on the button below
 
Add a business
 

Other Pages about Camp Clark Army Heliport

Update a link
 
Copyright © AirNav, LLC. All rights reserved. Privacy Policy  Contact